createdAt,value
2023-05-22T00:02:01.088Z,17.75
2023-05-22T00:04:30.965Z,17.72
2023-05-22T00:06:58.942Z,17.79
2023-05-22T00:09:27.309Z,17.89
2023-05-22T00:11:55.364Z,18.08
2023-05-22T00:14:23.134Z,18.10
2023-05-22T00:16:51.186Z,17.99
2023-05-22T00:19:23.142Z,17.91
2023-05-22T00:21:54.278Z,17.84
2023-05-22T00:24:22.098Z,17.78
2023-05-22T00:26:49.880Z,17.79
2023-05-22T00:29:19.592Z,17.78
2023-05-22T00:31:47.542Z,17.73
2023-05-22T00:34:15.701Z,17.65
2023-05-22T00:36:45.610Z,17.65
2023-05-22T00:39:15.023Z,17.69
2023-05-22T00:41:42.767Z,17.69
2023-05-22T00:44:11.770Z,17.78
2023-05-22T00:46:39.769Z,17.80
2023-05-22T00:49:07.541Z,17.77
2023-05-22T00:51:35.456Z,17.63
2023-05-22T00:54:03.316Z,17.68
2023-05-22T00:56:32.888Z,17.62
2023-05-22T00:59:00.862Z,17.60
2023-05-22T01:01:33.426Z,17.57
2023-05-22T01:04:05.178Z,17.55
2023-05-22T01:06:33.603Z,17.52
2023-05-22T01:09:01.385Z,17.51
2023-05-22T01:11:38.611Z,17.52
2023-05-22T01:14:12.346Z,17.48
2023-05-22T01:16:48.483Z,17.44
2023-05-22T01:19:37.464Z,17.44
2023-05-22T01:22:16.429Z,17.44
2023-05-22T01:25:00.509Z,17.37
2023-05-22T01:28:10.143Z,17.29
2023-05-22T01:30:49.750Z,17.31
2023-05-22T01:33:19.405Z,17.33
2023-05-22T01:35:54.185Z,17.27
2023-05-22T01:38:22.844Z,17.29
2023-05-22T01:40:51.088Z,17.27
2023-05-22T01:43:18.915Z,17.29
2023-05-22T01:45:48.444Z,17.25
2023-05-22T01:48:16.277Z,17.24
2023-05-22T01:50:45.388Z,17.21
2023-05-22T01:53:19.329Z,17.18
2023-05-22T01:55:55.744Z,17.19
2023-05-22T01:58:30.295Z,17.17
2023-05-22T02:01:03.483Z,17.14
2023-05-22T02:03:33.259Z,17.12
2023-05-22T02:06:04.350Z,17.11
2023-05-22T02:08:32.545Z,17.10
2023-05-22T02:11:02.985Z,17.01
2023-05-22T02:13:31.707Z,17.06
2023-05-22T02:16:04.092Z,17.02
2023-05-22T02:18:32.322Z,17.04
2023-05-22T02:21:02.747Z,17.00
2023-05-22T02:23:33.244Z,16.95
2023-05-22T02:26:01.244Z,16.97
2023-05-22T02:28:29.027Z,17.03
2023-05-22T02:30:56.905Z,17.07
2023-05-22T02:33:27.102Z,17.09
2023-05-22T02:35:55.350Z,17.16
2023-05-22T02:38:24.954Z,17.11
2023-05-22T02:40:53.243Z,17.00
2023-05-22T02:43:22.457Z,16.94
2023-05-22T02:45:51.013Z,16.88
2023-05-22T02:48:18.849Z,16.86
2023-05-22T02:50:49.007Z,16.89
2023-05-22T02:53:17.200Z,16.86
2023-05-22T02:55:45.905Z,16.87
2023-05-22T02:58:14.560Z,16.86
2023-05-22T03:00:43.233Z,16.84
2023-05-22T03:03:11.917Z,16.82
2023-05-22T03:05:40.125Z,16.77
2023-05-22T03:08:11.056Z,16.76
2023-05-22T03:10:40.141Z,16.78
2023-05-22T03:13:08.327Z,16.74
2023-05-22T03:15:36.118Z,16.67
2023-05-22T03:18:11.838Z,16.62
2023-05-22T03:20:41.833Z,16.58
2023-05-22T03:23:12.862Z,16.61
2023-05-22T03:25:40.760Z,16.60
2023-05-22T03:28:08.926Z,16.59
2023-05-22T03:30:42.016Z,16.54
2023-05-22T03:33:15.982Z,16.52
2023-05-22T03:35:44.944Z,16.52
2023-05-22T03:38:14.361Z,16.53
2023-05-22T03:40:42.276Z,16.52
2023-05-22T03:43:11.009Z,16.50
2023-05-22T03:45:39.791Z,16.49
2023-05-22T03:48:07.762Z,16.48
2023-05-22T03:50:35.839Z,16.48
2023-05-22T03:53:03.656Z,16.46
2023-05-22T03:55:33.650Z,16.40
2023-05-22T03:58:01.389Z,16.39
2023-05-22T04:00:29.232Z,16.36
2023-05-22T04:02:58.740Z,16.36
2023-05-22T04:05:26.827Z,16.34
2023-05-22T04:07:54.691Z,16.40
2023-05-22T04:10:23.690Z,16.39
2023-05-22T04:12:53.208Z,16.34
2023-05-22T04:15:21.872Z,16.35
2023-05-22T04:17:50.089Z,16.34
2023-05-22T04:20:18.297Z,16.29
2023-05-22T04:22:46.492Z,16.32
2023-05-22T04:25:14.626Z,16.39
2023-05-22T04:27:42.426Z,16.36
2023-05-22T04:30:12.140Z,16.38
2023-05-22T04:32:40.861Z,16.41
2023-05-22T04:35:10.088Z,16.32
2023-05-22T04:37:37.903Z,16.33
2023-05-22T04:40:07.730Z,16.28
2023-05-22T04:42:35.641Z,16.27
2023-05-22T04:45:04.673Z,16.35
2023-05-22T04:47:34.048Z,16.37
2023-05-22T04:50:07.931Z,16.35
2023-05-22T04:52:36.350Z,16.36
2023-05-22T04:55:05.953Z,16.43
2023-05-22T04:57:34.095Z,16.36
2023-05-22T05:00:04.827Z,16.42
2023-05-22T05:02:36.117Z,16.42
2023-05-22T05:05:04.022Z,16.40
2023-05-22T05:07:31.879Z,16.40
2023-05-22T05:09:59.707Z,16.42
2023-05-22T05:12:28.231Z,16.41
2023-05-22T05:14:56.295Z,16.36
2023-05-22T05:17:24.111Z,16.42
2023-05-22T05:19:53.594Z,16.36
2023-05-22T05:22:21.398Z,16.46
2023-05-22T05:24:49.164Z,16.46
2023-05-22T05:27:17.963Z,16.46
2023-05-22T05:29:49.110Z,16.47
2023-05-22T05:32:23.598Z,16.41
2023-05-22T05:34:57.058Z,16.47
2023-05-22T05:37:45.615Z,16.49
2023-05-22T05:40:14.951Z,16.48
2023-05-22T05:42:47.460Z,16.55
2023-05-22T05:45:16.632Z,16.57
2023-05-22T05:47:44.488Z,16.57
2023-05-22T05:50:15.535Z,16.59
2023-05-22T05:52:44.035Z,16.66
2023-05-22T05:55:16.778Z,16.70
2023-05-22T05:57:45.023Z,16.74
2023-05-22T06:00:20.029Z,16.80
2023-05-22T06:02:50.725Z,16.83
2023-05-22T06:05:46.925Z,16.86
2023-05-22T06:08:24.426Z,16.89
2023-05-22T06:10:52.590Z,16.92
2023-05-22T06:13:36.984Z,16.93
2023-05-22T06:16:06.732Z,16.95
2023-05-22T06:18:37.126Z,17.04
2023-05-22T06:21:08.055Z,17.11
2023-05-22T06:23:35.937Z,17.23
2023-05-22T06:26:05.091Z,17.26
2023-05-22T06:28:33.335Z,17.33
2023-05-22T06:31:02.799Z,17.41
2023-05-22T06:33:32.064Z,17.43
2023-05-22T06:36:00.010Z,17.54
2023-05-22T06:38:29.336Z,17.67
2023-05-22T06:40:57.202Z,17.84
2023-05-22T06:43:27.708Z,17.99
2023-05-22T06:46:00.794Z,17.96
2023-05-22T06:48:47.376Z,18.09
2023-05-22T06:51:21.866Z,18.15
2023-05-22T06:53:54.475Z,18.16
2023-05-22T06:56:26.002Z,18.26
2023-05-22T06:58:57.672Z,18.35
2023-05-22T07:01:38.362Z,18.33
2023-05-22T07:04:13.186Z,18.36
2023-05-22T07:06:58.701Z,18.43
2023-05-22T07:09:28.072Z,18.42
2023-05-22T07:11:55.913Z,18.55
2023-05-22T07:14:24.087Z,18.52
2023-05-22T07:16:52.055Z,18.77
2023-05-22T07:19:27.298Z,18.76
2023-05-22T07:22:00.097Z,18.77
2023-05-22T07:24:29.904Z,18.66
2023-05-22T07:26:57.893Z,18.63
2023-05-22T07:29:26.439Z,18.70
2023-05-22T07:31:55.853Z,18.63
2023-05-22T07:34:31.725Z,18.61
2023-05-22T07:36:59.940Z,18.71
2023-05-22T07:39:29.197Z,18.70
2023-05-22T07:41:59.454Z,18.87
2023-05-22T07:44:28.986Z,18.77
2023-05-22T07:46:56.830Z,18.68
2023-05-22T07:49:26.507Z,18.61
2023-05-22T07:51:54.417Z,18.59
2023-05-22T07:54:25.072Z,18.67
2023-05-22T07:56:56.145Z,18.73
2023-05-22T07:59:25.540Z,18.82
2023-05-22T08:01:58.416Z,18.75
2023-05-22T08:04:26.594Z,18.76
2023-05-22T08:06:54.493Z,18.85
2023-05-22T08:09:22.488Z,18.76
2023-05-22T08:11:50.445Z,18.81
2023-05-22T08:14:19.904Z,18.81
2023-05-22T08:16:47.820Z,18.73
2023-05-22T08:19:16.029Z,18.66
2023-05-22T08:21:43.864Z,18.65
2023-05-22T08:24:11.796Z,18.59
2023-05-22T08:26:40.954Z,18.52
2023-05-22T08:29:08.959Z,18.59
2023-05-22T08:31:38.272Z,18.45
2023-05-22T08:34:07.451Z,18.45
2023-05-22T08:36:35.550Z,18.53
2023-05-22T08:39:03.636Z,18.48
2023-05-22T08:41:31.821Z,18.52
2023-05-22T08:43:59.636Z,18.49
2023-05-22T08:46:29.191Z,18.50
2023-05-22T08:48:59.216Z,18.48
2023-05-22T08:51:31.384Z,18.57
2023-05-22T08:54:00.261Z,18.48
2023-05-22T08:56:33.533Z,18.46
2023-05-22T08:59:04.781Z,18.43
2023-05-22T09:01:33.658Z,18.42
2023-05-22T09:04:05.923Z,18.24
2023-05-22T09:06:34.677Z,18.24
2023-05-22T09:09:03.837Z,18.18
2023-05-22T09:11:31.883Z,18.29
2023-05-22T09:14:07.979Z,18.21
2023-05-22T09:16:45.252Z,18.19
2023-05-22T09:19:15.260Z,18.16
2023-05-22T09:21:44.610Z,18.13
2023-05-22T09:24:12.765Z,18.08
2023-05-22T09:26:41.241Z,18.10
2023-05-22T09:29:09.425Z,18.19
2023-05-22T09:31:42.126Z,18.36
2023-05-22T09:34:10.762Z,18.26
2023-05-22T09:36:40.310Z,18.23
2023-05-22T09:39:08.569Z,18.28
2023-05-22T09:41:38.641Z,18.26
2023-05-22T09:44:16.960Z,18.21
2023-05-22T09:46:47.785Z,18.29
2023-05-22T09:49:17.112Z,18.38
2023-05-22T09:51:48.911Z,18.29
2023-05-22T09:54:17.934Z,18.29
2023-05-22T09:56:48.648Z,18.34
2023-05-22T09:59:21.729Z,18.41
2023-05-22T10:01:51.509Z,18.33
2023-05-22T10:04:20.175Z,18.34
2023-05-22T10:06:52.969Z,18.43
2023-05-22T10:09:25.904Z,18.56
2023-05-22T10:11:56.175Z,18.55
2023-05-22T10:14:25.590Z,18.45
2023-05-22T10:16:55.117Z,18.59
2023-05-22T10:19:27.153Z,18.67
2023-05-22T10:21:57.924Z,18.71
2023-05-22T10:24:26.194Z,18.76
2023-05-22T10:26:55.362Z,18.81
2023-05-22T10:29:28.917Z,18.92
2023-05-22T10:32:05.918Z,19.03
2023-05-22T10:34:53.310Z,19.00
2023-05-22T10:37:41.471Z,19.25
2023-05-22T10:40:13.104Z,19.24
2023-05-22T10:42:41.520Z,19.19
2023-05-22T10:45:10.218Z,19.36
2023-05-22T10:47:38.380Z,19.24
2023-05-22T10:50:09.583Z,19.11
2023-05-22T10:52:40.059Z,19.28
2023-05-22T10:55:09.302Z,19.27
2023-05-22T10:57:40.458Z,19.26
2023-05-22T11:00:10.684Z,19.33
2023-05-22T11:02:43.791Z,19.41
2023-05-22T11:05:35.546Z,19.61
2023-05-22T11:08:39.745Z,19.63
2023-05-22T11:11:14.653Z,20.10
2023-05-22T11:13:43.687Z,19.95
2023-05-22T11:16:12.442Z,19.91
2023-05-22T11:18:41.093Z,20.02
2023-05-22T11:21:11.682Z,20.08
2023-05-22T11:23:41.169Z,20.07
2023-05-22T11:26:19.983Z,20.05
2023-05-22T11:28:54.922Z,20.25
2023-05-22T11:31:26.408Z,20.29
2023-05-22T11:33:54.659Z,20.45
2023-05-22T11:36:23.532Z,20.41
2023-05-22T11:38:57.912Z,20.76
2023-05-22T11:41:25.709Z,20.61
2023-05-22T11:43:53.543Z,20.75
2023-05-22T11:46:21.472Z,20.85
2023-05-22T11:48:49.483Z,20.92
2023-05-22T11:51:20.549Z,21.02
2023-05-22T11:53:48.755Z,20.95
2023-05-22T11:56:21.555Z,21.14
2023-05-22T11:58:49.557Z,21.37
2023-05-22T12:01:17.619Z,21.28
2023-05-22T12:03:45.460Z,21.15
2023-05-22T12:06:15.824Z,21.23
2023-05-22T12:08:45.494Z,21.30
2023-05-22T12:11:13.928Z,21.15
2023-05-22T12:13:43.184Z,21.27
2023-05-22T12:16:29.157Z,21.58
2023-05-22T12:18:57.124Z,21.75
2023-05-22T12:21:25.008Z,21.73
2023-05-22T12:23:52.894Z,21.86
2023-05-22T12:26:21.446Z,21.63
2023-05-22T12:28:53.937Z,21.73
2023-05-22T12:31:22.654Z,21.95
2023-05-22T12:33:50.635Z,21.88
2023-05-22T12:36:18.560Z,21.97
2023-05-22T12:38:46.509Z,21.91
2023-05-22T12:41:14.326Z,21.98
2023-05-22T12:43:42.442Z,22.47
2023-05-22T12:46:11.798Z,22.15
2023-05-22T12:48:39.555Z,22.13
2023-05-22T12:51:09.288Z,22.06
2023-05-22T12:53:37.115Z,22.09
2023-05-22T12:56:05.948Z,22.53
2023-05-22T12:58:33.755Z,22.76
2023-05-22T13:01:01.533Z,22.47
2023-05-22T13:03:31.433Z,22.89
2023-05-22T13:05:59.632Z,23.03
2023-05-22T13:08:27.552Z,22.88
2023-05-22T13:10:55.470Z,23.11
2023-05-22T13:13:24.167Z,23.15
2023-05-22T13:15:52.013Z,22.96
2023-05-22T13:18:20.028Z,22.97
2023-05-22T13:20:49.601Z,23.07
2023-05-22T13:23:17.491Z,22.88
2023-05-22T13:25:45.318Z,22.68
2023-05-22T13:28:13.140Z,22.81
2023-05-22T13:30:44.158Z,23.12
2023-05-22T13:33:12.344Z,22.85
2023-05-22T13:35:40.525Z,23.14
2023-05-22T13:38:09.925Z,23.31
2023-05-22T13:40:37.795Z,23.29
2023-05-22T13:43:05.618Z,23.34
2023-05-22T13:45:33.438Z,23.61
2023-05-22T13:48:01.503Z,23.97
2023-05-22T13:50:29.409Z,23.67
2023-05-22T13:52:57.575Z,23.72
2023-05-22T13:55:26.790Z,23.93
2023-05-22T13:57:54.808Z,23.92
2023-05-22T14:00:22.867Z,23.85
2023-05-22T14:02:50.892Z,23.49
2023-05-22T14:05:18.859Z,23.25
2023-05-22T14:07:46.704Z,23.26
2023-05-22T14:10:14.653Z,23.40
2023-05-22T14:12:43.903Z,23.56
2023-05-22T14:15:12.047Z,23.77
2023-05-22T14:17:39.962Z,23.65
2023-05-22T14:20:08.926Z,23.97
2023-05-22T14:22:48.030Z,23.97
2023-05-22T14:25:24.431Z,23.64
2023-05-22T14:27:53.682Z,23.64
2023-05-22T14:30:21.485Z,23.91
2023-05-22T14:32:49.334Z,24.02
2023-05-22T14:35:17.683Z,23.96
2023-05-22T14:37:45.561Z,23.89
2023-05-22T14:40:13.591Z,23.89
2023-05-22T14:42:41.355Z,23.75
2023-05-22T14:45:11.731Z,23.96
2023-05-22T14:47:40.786Z,24.00
2023-05-22T14:50:19.207Z,23.94
2023-05-22T14:52:47.944Z,23.84
2023-05-22T14:55:15.986Z,23.48
2023-05-22T14:57:43.736Z,23.67
2023-05-22T15:00:14.479Z,23.74
2023-05-22T15:02:42.380Z,23.70
2023-05-22T15:05:10.769Z,23.64
2023-05-22T15:07:44.464Z,23.59
2023-05-22T15:10:13.945Z,23.83
2023-05-22T15:12:41.894Z,23.69
2023-05-22T15:15:14.874Z,23.47
2023-05-22T15:17:43.137Z,23.34
2023-05-22T15:20:12.436Z,23.36
2023-05-22T15:22:40.352Z,23.59
2023-05-22T15:25:09.733Z,23.35
2023-05-22T15:27:39.535Z,23.38
2023-05-22T15:30:10.181Z,23.30
2023-05-22T15:32:40.029Z,23.36
2023-05-22T15:35:09.150Z,23.54
2023-05-22T15:37:37.044Z,23.43
2023-05-22T15:40:05.961Z,23.38
2023-05-22T15:42:33.895Z,23.41
2023-05-22T15:45:01.881Z,23.31
2023-05-22T15:47:30.345Z,23.48
2023-05-22T15:50:00.206Z,23.48
2023-05-22T15:52:28.466Z,23.59
2023-05-22T15:54:57.175Z,23.47
2023-05-22T15:57:25.203Z,23.61
2023-05-22T15:59:52.891Z,23.45
2023-05-22T16:02:20.892Z,23.44
2023-05-22T16:04:49.846Z,23.56
2023-05-22T16:07:22.484Z,23.58
2023-05-22T16:09:51.255Z,23.26
2023-05-22T16:12:20.008Z,23.26
2023-05-22T16:15:24.779Z,23.54
2023-05-22T16:17:54.519Z,23.54
2023-05-22T16:20:54.767Z,23.49
2023-05-22T16:23:54.449Z,23.44
2023-05-22T16:26:26.153Z,23.73
2023-05-22T16:28:54.046Z,23.45
2023-05-22T16:31:21.914Z,23.26
2023-05-22T16:33:49.753Z,23.31
2023-05-22T16:36:17.573Z,22.95
2023-05-22T16:38:45.336Z,22.75
2023-05-22T16:41:18.288Z,22.57
2023-05-22T16:43:47.605Z,22.34
2023-05-22T16:46:15.676Z,22.25
2023-05-22T16:48:43.658Z,22.23
2023-05-22T16:51:11.637Z,21.86
2023-05-22T16:53:41.673Z,21.69
2023-05-22T16:56:09.610Z,21.80
2023-05-22T16:58:37.392Z,21.62
2023-05-22T17:01:07.365Z,21.54
2023-05-22T17:03:35.479Z,21.29
2023-05-22T17:06:03.591Z,21.23
2023-05-22T17:08:32.218Z,21.06
2023-05-22T17:11:00.446Z,20.97
2023-05-22T17:13:28.173Z,20.84
2023-05-22T17:15:56.124Z,20.81
2023-05-22T17:18:25.388Z,20.82
2023-05-22T17:20:55.699Z,20.66
2023-05-22T17:23:23.955Z,20.49
2023-05-22T17:25:51.794Z,20.77
2023-05-22T17:28:19.753Z,20.41
2023-05-22T17:30:48.218Z,20.36
2023-05-22T17:33:16.116Z,20.14
2023-05-22T17:35:46.006Z,20.27
2023-05-22T17:38:13.878Z,20.13
2023-05-22T17:40:45.687Z,20.27
2023-05-22T17:43:14.707Z,20.18
2023-05-22T17:45:44.406Z,20.26
2023-05-22T17:48:13.847Z,20.13
2023-05-22T17:50:42.747Z,20.12
2023-05-22T17:53:13.395Z,20.13
2023-05-22T17:55:41.175Z,20.37
2023-05-22T17:58:09.120Z,20.26
2023-05-22T18:00:37.200Z,20.36
2023-05-22T18:03:05.836Z,20.20
2023-05-22T18:05:33.644Z,20.37
2023-05-22T18:08:01.773Z,20.32
2023-05-22T18:10:31.046Z,20.60
2023-05-22T18:12:59.049Z,20.48
2023-05-22T18:15:26.810Z,20.36
2023-05-22T18:17:55.127Z,20.45
2023-05-22T18:20:23.040Z,20.37
2023-05-22T18:22:50.905Z,20.44
2023-05-22T18:25:18.613Z,20.77
2023-05-22T18:27:48.131Z,20.47
2023-05-22T18:30:16.298Z,20.48
2023-05-22T18:32:44.123Z,20.71
2023-05-22T18:35:12.080Z,20.81
2023-05-22T18:37:39.893Z,20.49
2023-05-22T18:40:09.602Z,20.42
2023-05-22T18:42:38.089Z,20.45
2023-05-22T18:45:08.612Z,20.53
2023-05-22T18:47:36.589Z,20.64
2023-05-22T18:50:05.350Z,20.66
2023-05-22T18:52:33.148Z,20.66
2023-05-22T18:55:00.921Z,20.49
2023-05-22T18:57:28.689Z,20.53
2023-05-22T18:59:56.452Z,20.56
2023-05-22T19:02:26.124Z,20.63
2023-05-22T19:04:54.587Z,20.42
2023-05-22T19:07:22.484Z,20.17
2023-05-22T19:09:50.701Z,20.25
2023-05-22T19:12:18.527Z,20.18
2023-05-22T19:14:48.303Z,20.14
2023-05-22T19:17:16.397Z,20.05
2023-05-22T19:19:46.527Z,20.16
2023-05-22T19:22:17.712Z,20.19
2023-05-22T19:24:46.182Z,20.07
2023-05-22T19:27:13.966Z,20.06
2023-05-22T19:29:41.823Z,20.43
2023-05-22T19:32:09.813Z,19.94
2023-05-22T19:34:37.580Z,19.87
2023-05-22T19:37:08.982Z,19.97
2023-05-22T19:39:36.850Z,19.78
2023-05-22T19:42:07.136Z,19.62
2023-05-22T19:44:34.877Z,19.90
2023-05-22T19:47:02.742Z,19.81
2023-05-22T19:49:31.549Z,19.76
2023-05-22T19:51:59.731Z,19.78
2023-05-22T19:54:29.404Z,20.03
2023-05-22T19:56:57.139Z,19.79
2023-05-22T19:59:24.893Z,19.94
2023-05-22T20:01:53.877Z,19.98
2023-05-22T20:04:22.627Z,19.86
2023-05-22T20:06:50.794Z,19.76
2023-05-22T20:09:18.650Z,19.62
2023-05-22T20:11:48.186Z,19.55
2023-05-22T20:14:16.040Z,19.60
2023-05-22T20:16:43.947Z,19.45
2023-05-22T20:19:14.249Z,19.36
2023-05-22T20:21:42.203Z,19.34
2023-05-22T20:24:12.379Z,19.26
2023-05-22T20:26:40.348Z,19.27
2023-05-22T20:29:09.765Z,19.20
2023-05-22T20:31:37.580Z,19.04
2023-05-22T20:34:06.199Z,19.02
2023-05-22T20:36:35.234Z,19.09
2023-05-22T20:39:03.430Z,19.07
2023-05-22T20:41:31.658Z,19.35
2023-05-22T20:43:59.434Z,19.08
2023-05-22T20:46:29.274Z,19.05
2023-05-22T20:48:58.307Z,19.08
2023-05-22T20:51:31.624Z,19.26
2023-05-22T20:54:00.255Z,18.96
2023-05-22T20:56:28.864Z,18.84
2023-05-22T20:58:57.246Z,18.75
2023-05-22T21:01:25.623Z,18.68
2023-05-22T21:03:56.394Z,18.63
2023-05-22T21:06:24.905Z,18.46
2023-05-22T21:08:54.286Z,18.42
2023-05-22T21:11:22.239Z,18.44
2023-05-22T21:13:50.393Z,18.54
2023-05-22T21:16:18.221Z,18.46
2023-05-22T21:18:46.169Z,18.48
2023-05-22T21:21:16.903Z,18.56
2023-05-22T21:23:44.851Z,18.41
2023-05-22T21:26:12.818Z,18.33
2023-05-22T21:28:40.887Z,18.34
2023-05-22T21:31:08.646Z,18.28
2023-05-22T21:33:36.484Z,18.30
2023-05-22T21:36:07.819Z,18.32
2023-05-22T21:38:37.011Z,18.25
2023-05-22T21:41:05.072Z,18.30
2023-05-22T21:43:32.830Z,18.25
2023-05-22T21:46:00.703Z,18.20
2023-05-22T21:48:28.448Z,18.29
2023-05-22T21:50:56.373Z,18.22
2023-05-22T21:53:24.227Z,18.08
2023-05-22T21:55:53.827Z,18.31
2023-05-22T21:58:21.821Z,18.20
2023-05-22T22:00:51.172Z,18.22
2023-05-22T22:03:19.205Z,17.99
2023-05-22T22:05:47.289Z,18.15
2023-05-22T22:08:15.040Z,17.92
2023-05-22T22:10:42.905Z,18.01
2023-05-22T22:13:12.163Z,17.76
2023-05-22T22:15:39.965Z,17.82
2023-05-22T22:18:08.424Z,17.72
2023-05-22T22:20:44.050Z,17.71
2023-05-22T22:23:13.034Z,17.62
2023-05-22T22:25:40.834Z,17.61
2023-05-22T22:28:08.634Z,17.78
2023-05-22T22:30:38.045Z,17.73
2023-05-22T22:33:06.387Z,17.79
2023-05-22T22:35:34.220Z,17.57
2023-05-22T22:38:02.117Z,17.61
2023-05-22T22:40:29.936Z,17.49
2023-05-22T22:42:57.649Z,17.54
2023-05-22T22:45:25.756Z,17.65
2023-05-22T22:47:56.445Z,17.55
2023-05-22T22:50:25.347Z,17.64
2023-05-22T22:52:53.363Z,17.50
2023-05-22T22:55:21.307Z,17.32
2023-05-22T22:57:50.106Z,17.35
2023-05-22T23:00:20.097Z,17.10
2023-05-22T23:02:48.024Z,17.10
2023-05-22T23:05:20.530Z,17.11
2023-05-22T23:07:48.682Z,17.02
2023-05-22T23:10:16.901Z,17.03
2023-05-22T23:12:44.668Z,16.99
2023-05-22T23:15:16.263Z,16.93
2023-05-22T23:17:44.217Z,16.77
2023-05-22T23:20:12.729Z,16.69
2023-05-22T23:22:41.903Z,16.66
2023-05-22T23:25:10.546Z,16.60
2023-05-22T23:27:39.187Z,16.68
2023-05-22T23:30:08.419Z,16.60
2023-05-22T23:32:36.576Z,16.77
2023-05-22T23:35:05.612Z,16.61
2023-05-22T23:37:33.619Z,16.65
2023-05-22T23:40:02.819Z,16.61
2023-05-22T23:42:30.737Z,16.89
2023-05-22T23:44:58.533Z,16.78
2023-05-22T23:47:26.730Z,17.08
2023-05-22T23:49:56.491Z,16.93
2023-05-22T23:52:24.579Z,16.69
2023-05-22T23:54:52.320Z,16.66
2023-05-22T23:57:21.477Z,16.60
2023-05-22T23:59:49.172Z,16.50
